PWSweather.com
Personal Weather Stations
Station Observations
KMOCREVE3
Whispering Hills, Creve Coeur, MO 63146

Whispering HillsCreve Coeur, MO 63146

Lat: 38.68, Lon: -90.463

Elevation: 530

Station Type: Vantage Vue

Latest ConditionsUpdated 5:50:00 AM CDT Monday, Mar 25, 2019
Currently Today's Max Today's Min Today's Average
Temperature 48.9°F9.4°C 53.4°F11.9°C 48.9°F9.4°C 51.6°F10.9°C
Dew Point 47.5°F8.6°C 52.6°F11.4°C 47.5°F8.6°C 50.6°F10.3°C
Winds 3.0 mph NW4.8 kmh NW 3.0 mph -4.8 kmh - - 1.2 mph 1.9 kmh
Wind Gusts 12.0 mph19.3 kmh 12.0 mph19.3 kmh - -
Humidity 95% 97% 95% 96%
Pressure 30.01 in1016.3 mb 30.01 in1016.3 mb 29.94 in1013.9 mb -
Precipitation - 0.15 in3.8 mm - -
Hour Temp Dew Point Humidity Winds Wind Gusts Pressure Precip Precip Rate Daily Precip Total
05:50 AM 48.9°F9.4°C 47.5°F8.6°C 95% 3.0 mph NW4.8 kmh NW 12.0 mph19.3 kmh 30.01 in1016.3 mb 0.00 in0.0 mm 0.00 in0.0 mm 0.15 in3.8 mm
05:40 AM 49.6°F9.8°C 48.2°F9.0°C 95% 2.0 mph NW3.2 kmh NW 8.0 mph12.9 kmh 30.00 in1015.9 mb 0.00 in0.0 mm 0.00 in0.0 mm 0.15 in3.8 mm
05:30 AM 49.7°F9.8°C 48.6°F9.2°C 96% 2.0 mph NW3.2 kmh NW 9.0 mph14.5 kmh 30.00 in1015.9 mb 0.00 in0.0 mm 0.00 in0.0 mm 0.15 in3.8 mm
05:20 AM 49.8°F9.9°C 48.7°F9.3°C 96% 2.0 mph NW3.2 kmh NW 5.0 mph8.0 kmh 30.00 in1015.9 mb 0.00 in0.0 mm 0.00 in0.0 mm 0.15 in3.8 mm
05:10 AM 49.9°F9.9°C 48.8°F9.3°C 96% 2.0 mph NW3.2 kmh NW 4.0 mph6.4 kmh 29.99 in1015.6 mb 0.00 in0.0 mm 0.00 in0.0 mm 0.15 in3.8 mm
05:00 AM 50.1°F10.1°C 49.0°F9.4°C 96% Calm Calm 3.0 mph4.8 kmh 29.99 in1015.6 mb 0.00 in0.0 mm 0.00 in0.0 mm 0.15 in3.8 mm
04:50 AM 50.1°F10.1°C 49.0°F9.4°C 96% 1.0 mph NW1.6 kmh NW 4.0 mph6.4 kmh 29.98 in1015.2 mb 0.00 in0.0 mm 0.00 in0.0 mm 0.15 in3.8 mm
04:40 AM 50.2°F10.1°C 49.1°F9.5°C 96% 2.0 mph NW3.2 kmh NW 5.0 mph8.0 kmh 29.98 in1015.2 mb 0.00 in0.0 mm 0.00 in0.0 mm 0.15 in3.8 mm
04:30 AM 50.4°F10.2°C 49.6°F9.8°C 97% 3.0 mph NW4.8 kmh NW 8.0 mph12.9 kmh 29.97 in1014.9 mb 0.00 in0.0 mm 0.00 in0.0 mm 0.15 in3.8 mm
04:20 AM 50.6°F10.3°C 49.8°F9.9°C 97% 2.0 mph NW3.2 kmh NW 5.0 mph8.0 kmh 29.97 in1014.9 mb 0.00 in0.0 mm 0.00 in0.0 mm 0.15 in3.8 mm
04:10 AM 50.6°F10.3°C 49.8°F9.9°C 97% 3.0 mph NW4.8 kmh NW 10.0 mph16.1 kmh 29.97 in1014.9 mb 0.00 in0.0 mm 0.00 in0.0 mm 0.15 in3.8 mm
04:00 AM 50.7°F10.4°C 49.9°F9.9°C 97% 2.0 mph NW3.2 kmh NW 6.0 mph9.7 kmh 29.97 in1014.9 mb 0.00 in0.0 mm 0.00 in0.0 mm 0.15 in3.8 mm
03:50 AM 50.8°F10.4°C 50.0°F10.0°C 97% 2.0 mph NW3.2 kmh NW 6.0 mph9.7 kmh 29.97 in1014.9 mb 0.01 in0.3 mm 0.00 in0.0 mm 0.15 in3.8 mm
03:40 AM 50.9°F10.5°C 50.1°F10.1°C 97% 2.0 mph NW3.2 kmh NW 8.0 mph12.9 kmh 29.98 in1015.2 mb 0.02 in0.5 mm 0.00 in0.0 mm 0.15 in3.8 mm
03:30 AM 51.0°F10.6°C 50.2°F10.1°C 97% 2.0 mph NW3.2 kmh NW 8.0 mph12.9 kmh 29.97 in1014.9 mb 0.05 in1.3 mm 0.00 in0.0 mm 0.15 in3.8 mm
03:20 AM 51.3°F10.7°C 50.5°F10.3°C 97% 1.0 mph NW1.6 kmh NW 9.0 mph14.5 kmh 29.98 in1015.2 mb 0.08 in2.0 mm 0.00 in0.0 mm 0.15 in3.8 mm
03:10 AM 51.4°F10.8°C 50.6°F10.3°C 97% 1.0 mph NW1.6 kmh NW 4.0 mph6.4 kmh 29.97 in1014.9 mb 0.14 in3.6 mm 0.00 in0.0 mm 0.15 in3.8 mm
03:00 AM 51.4°F10.8°C 50.6°F10.3°C 97% 2.0 mph NW3.2 kmh NW 4.0 mph6.4 kmh 29.97 in1014.9 mb 0.15 in3.8 mm 0.01 in0.3 mm 0.15 in3.8 mm
02:50 AM 51.4°F10.8°C 50.6°F10.3°C 97% Calm Calm 3.0 mph4.8 kmh 29.97 in1014.9 mb 0.14 in3.6 mm 0.06 in1.5 mm 0.14 in3.6 mm
02:40 AM 51.6°F10.9°C 50.5°F10.3°C 96% 1.0 mph NW1.6 kmh NW 4.0 mph6.4 kmh 29.96 in1014.6 mb 0.13 in3.3 mm 0.18 in4.6 mm 0.13 in3.3 mm
02:30 AM 51.8°F11.0°C 50.7°F10.4°C 96% 1.0 mph NW1.6 kmh NW 4.0 mph6.4 kmh 29.97 in1014.9 mb 0.10 in2.5 mm 0.18 in4.6 mm 0.10 in2.5 mm
02:20 AM 52.1°F11.2°C 51.0°F10.6°C 96% 1.0 mph NW1.6 kmh NW 7.0 mph11.3 kmh 29.98 in1015.2 mb 0.07 in1.8 mm 0.36 in9.1 mm 0.07 in1.8 mm
02:10 AM 52.4°F11.3°C 51.3°F10.7°C 96% 2.0 mph NW3.2 kmh NW 6.0 mph9.7 kmh 29.98 in1015.2 mb 0.01 in0.3 mm 0.06 in1.5 mm 0.01 in0.3 mm
02:00 AM 52.8°F11.6°C 52.0°F11.1°C 97% 1.0 mph NW1.6 kmh NW 9.0 mph14.5 kmh 29.97 in1014.9 mb 0.00 in0.0 mm 0.00 in0.0 mm 0.00 in0.0 mm
01:50 AM 53.1°F11.7°C 52.3°F11.3°C 97% 1.0 mph NW1.6 kmh NW 6.0 mph9.7 kmh 29.97 in1014.9 mb 0.00 in0.0 mm 0.00 in0.0 mm 0.00 in0.0 mm
01:40 AM 53.2°F11.8°C 52.4°F11.3°C 97% 1.0 mph NW1.6 kmh NW 4.0 mph6.4 kmh 29.96 in1014.6 mb 0.00 in0.0 mm 0.00 in0.0 mm 0.00 in0.0 mm
01:30 AM 53.3°F11.8°C 52.5°F11.4°C 97% 1.0 mph NW1.6 kmh NW 5.0 mph8.0 kmh 29.95 in1014.2 mb 0.00 in0.0 mm 0.00 in0.0 mm 0.00 in0.0 mm
01:20 AM 53.4°F11.9°C 52.6°F11.4°C 97% Calm Calm 2.0 mph3.2 kmh 29.95 in1014.2 mb 0.00 in0.0 mm 0.00 in0.0 mm 0.00 in0.0 mm
01:10 AM 53.3°F11.8°C 52.5°F11.4°C 97% Calm Calm 2.0 mph3.2 kmh 29.95 in1014.2 mb 0.00 in0.0 mm 0.00 in0.0 mm 0.00 in0.0 mm
01:00 AM 53.2°F11.8°C 52.4°F11.3°C 97% Calm Calm 1.0 mph1.6 kmh 29.95 in1014.2 mb 0.00 in0.0 mm 0.00 in0.0 mm 0.00 in0.0 mm
12:50 AM 53.1°F11.7°C 52.0°F11.1°C 96% Calm Calm 1.0 mph1.6 kmh 29.95 in1014.2 mb 0.00 in0.0 mm 0.00 in0.0 mm 0.00 in0.0 mm
12:40 AM 53.1°F11.7°C 52.0°F11.1°C 96% Calm Calm 1.0 mph1.6 kmh 29.95 in1014.2 mb 0.00 in0.0 mm 0.00 in0.0 mm 0.00 in0.0 mm
12:30 AM 53.1°F11.7°C 52.0°F11.1°C 96% Calm Calm 1.0 mph1.6 kmh 29.95 in1014.2 mb 0.00 in0.0 mm 0.00 in0.0 mm 0.00 in0.0 mm
12:20 AM 52.9°F11.6°C 51.8°F11.0°C 96% Calm Calm 1.0 mph1.6 kmh 29.94 in1013.9 mb 0.00 in0.0 mm 0.00 in0.0 mm 0.00 in0.0 mm
12:10 AM 52.8°F11.6°C 51.7°F10.9°C 96% Calm Calm -- 29.94 in1013.9 mb 0.00 in0.0 mm 0.00 in0.0 mm 0.00 in0.0 mm
12:00 AM 52.9°F11.6°C 51.8°F11.0°C 96% Calm Calm -- 29.94 in1013.9 mb 0.00 in0.0 mm 0.00 in0.0 mm 0.00 in0.0 mm